Aviation Digital Data Service (ADDS)

Output produced by METARs form (1832 UTC 30 September 2016)
found at http://aviationweather.gov/adds/metars/
 
KGFL 301731Z 3018/0118 02009KT P6SM BKN150 OVC250 
     FM010200 01005KT 4SM -RA BR SCT025 OVC035 
     FM011000 04005KT 3SM -RA BR SCT009 OVC025